createdAt,value
2023-02-16T00:01:58.631Z,-2.14
2023-02-16T00:04:29.530Z,-2.15
2023-02-16T00:06:58.376Z,-2.14
2023-02-16T00:09:26.320Z,-2.12
2023-02-16T00:12:12.964Z,-2.09
2023-02-16T00:14:40.986Z,-2.09
2023-02-16T00:17:11.582Z,-2.13
2023-02-16T00:19:42.174Z,-2.19
2023-02-16T00:22:11.389Z,-2.24
2023-02-16T00:24:39.296Z,-2.27
2023-02-16T00:27:15.254Z,-2.32
2023-02-16T00:29:45.778Z,-2.35
2023-02-16T00:32:14.705Z,-2.36
2023-02-16T00:34:43.489Z,-2.36
2023-02-16T00:37:13.844Z,-2.33
2023-02-16T00:39:43.587Z,-2.35
2023-02-16T00:42:21.114Z,-2.38
2023-02-16T00:44:51.823Z,-2.41
2023-02-16T00:47:31.113Z,-2.46
2023-02-16T00:49:59.264Z,-2.51
2023-02-16T00:52:33.451Z,-2.57
2023-02-16T00:55:04.832Z,-2.65
2023-02-16T00:57:44.611Z,-2.69
2023-02-16T01:00:30.199Z,-2.73
2023-02-16T01:03:01.497Z,-2.73
2023-02-16T01:05:29.568Z,-2.71
2023-02-16T01:08:16.552Z,-2.69
2023-02-16T01:11:03.633Z,-2.69
2023-02-16T01:13:36.847Z,-2.71
2023-02-16T01:16:04.884Z,-2.74
2023-02-16T01:18:32.888Z,-2.73
2023-02-16T01:21:00.955Z,-2.72
2023-02-16T01:23:29.565Z,-2.74
2023-02-16T01:25:57.610Z,-2.76
2023-02-16T01:28:26.627Z,-2.80
2023-02-16T01:30:54.901Z,-2.83
2023-02-16T01:33:23.879Z,-2.83
2023-02-16T01:35:53.844Z,-2.84
2023-02-16T01:38:25.765Z,-2.87
2023-02-16T01:41:25.252Z,-2.91
2023-02-16T01:43:59.925Z,-2.98
2023-02-16T01:46:43.436Z,-3.02
2023-02-16T01:49:17.266Z,-3.04
2023-02-16T01:51:51.907Z,-3.04
2023-02-16T01:54:44.441Z,-3.03
2023-02-16T01:57:31.012Z,-2.98
2023-02-16T01:59:58.808Z,-2.93
2023-02-16T02:02:29.306Z,-2.91
2023-02-16T02:05:25.833Z,-2.92
2023-02-16T02:08:28.364Z,-2.98
2023-02-16T02:11:08.068Z,-3.04
2023-02-16T02:13:45.923Z,-3.12
2023-02-16T02:16:18.158Z,-3.18
2023-02-16T02:18:46.107Z,-3.22
2023-02-16T02:21:47.448Z,-3.25
2023-02-16T02:24:21.348Z,-3.27
2023-02-16T02:26:55.844Z,-3.32
2023-02-16T02:29:40.756Z,-3.35
2023-02-16T02:32:50.260Z,-3.36
2023-02-16T02:35:18.069Z,-3.38
2023-02-16T02:38:10.714Z,-3.41
2023-02-16T02:40:59.172Z,-3.45
2023-02-16T02:43:43.561Z,-3.51
2023-02-16T02:46:33.230Z,-3.54
2023-02-16T02:49:01.225Z,-3.54
2023-02-16T02:51:29.675Z,-3.52
2023-02-16T02:54:24.940Z,-3.48
2023-02-16T02:57:32.087Z,-3.44
2023-02-16T03:00:43.922Z,-3.40
2023-02-16T03:03:27.880Z,-3.32
2023-02-16T03:06:30.517Z,-3.26
2023-02-16T03:09:05.322Z,-3.22
2023-02-16T03:11:51.854Z,-3.17
2023-02-16T03:14:29.590Z,-3.12
2023-02-16T03:17:19.281Z,-3.05
2023-02-16T03:20:10.102Z,-2.98
2023-02-16T03:22:58.146Z,-2.92
2023-02-16T03:25:50.276Z,-2.92
2023-02-16T03:28:40.400Z,-2.95
2023-02-16T03:31:11.901Z,-2.96
2023-02-16T03:33:41.292Z,-2.97
2023-02-16T03:36:12.232Z,-2.98
2023-02-16T03:38:40.428Z,-2.96
2023-02-16T03:41:08.432Z,-2.95
2023-02-16T03:43:36.323Z,-2.96
2023-02-16T03:46:04.495Z,-2.97
2023-02-16T03:48:32.483Z,-2.98
2023-02-16T03:51:00.423Z,-2.98
2023-02-16T03:53:28.401Z,-2.99
2023-02-16T03:55:57.075Z,-2.97
2023-02-16T03:58:26.129Z,-2.98
2023-02-16T04:00:54.222Z,-3.02
2023-02-16T04:03:22.246Z,-3.02
2023-02-16T04:05:51.626Z,-3.03
2023-02-16T04:08:19.681Z,-3.03
2023-02-16T04:10:47.893Z,-3.03
2023-02-16T04:13:15.884Z,-3.01
2023-02-16T04:15:45.105Z,-3.00
2023-02-16T04:18:13.278Z,-3.02
2023-02-16T04:20:41.858Z,-3.02
2023-02-16T04:23:10.007Z,-2.97
2023-02-16T04:25:38.017Z,-2.96
2023-02-16T04:28:06.103Z,-2.97
2023-02-16T04:30:37.164Z,-2.96
2023-02-16T04:33:05.162Z,-2.94
2023-02-16T04:35:37.896Z,-2.92
2023-02-16T04:38:06.016Z,-2.92
2023-02-16T04:40:34.006Z,-2.91
2023-02-16T04:43:01.969Z,-2.91
2023-02-16T04:45:29.885Z,-2.89
2023-02-16T04:47:57.862Z,-2.92
2023-02-16T04:50:25.804Z,-2.98
2023-02-16T04:52:53.729Z,-3.02
2023-02-16T04:55:21.628Z,-3.01
2023-02-16T04:57:50.354Z,-2.98
2023-02-16T05:00:19.514Z,-2.93
2023-02-16T05:02:48.568Z,-2.89
2023-02-16T05:05:16.768Z,-2.89
2023-02-16T05:07:44.794Z,-2.91
2023-02-16T05:10:12.870Z,-2.95
2023-02-16T05:12:59.504Z,-2.96
2023-02-16T05:15:27.517Z,-2.95
2023-02-16T05:17:57.281Z,-2.95
2023-02-16T05:20:47.581Z,-3.00
2023-02-16T05:23:16.872Z,-3.08
2023-02-16T05:25:45.420Z,-3.13
2023-02-16T05:28:13.424Z,-3.15
2023-02-16T05:30:41.570Z,-3.16
2023-02-16T05:33:09.567Z,-3.16
2023-02-16T05:35:37.450Z,-3.17
2023-02-16T05:38:05.504Z,-3.22
2023-02-16T05:40:33.508Z,-3.25
2023-02-16T05:43:01.472Z,-3.30
2023-02-16T05:45:29.636Z,-3.34
2023-02-16T05:47:57.688Z,-3.32
2023-02-16T05:50:25.664Z,-3.28
2023-02-16T05:52:54.192Z,-3.23
2023-02-16T05:55:22.647Z,-3.15
2023-02-16T05:57:50.646Z,-3.07
2023-02-16T06:00:18.882Z,-3.01
2023-02-16T06:02:46.938Z,-2.95
2023-02-16T06:05:15.292Z,-2.92
2023-02-16T06:07:43.443Z,-2.92
2023-02-16T06:10:11.790Z,-2.96
2023-02-16T06:12:39.823Z,-3.05
2023-02-16T06:15:08.086Z,-3.16
2023-02-16T06:17:36.055Z,-3.21
2023-02-16T06:20:05.070Z,-3.25
2023-02-16T06:22:32.934Z,-3.28
2023-02-16T06:25:00.842Z,-3.34
2023-02-16T06:27:29.007Z,-3.43
2023-02-16T06:29:56.983Z,-3.52
2023-02-16T06:32:25.209Z,-3.51
2023-02-16T06:34:53.366Z,-3.44
2023-02-16T06:37:22.373Z,-3.37
2023-02-16T06:39:50.424Z,-3.35
2023-02-16T06:42:18.430Z,-3.31
2023-02-16T06:44:46.450Z,-3.25
2023-02-16T06:47:14.264Z,-3.20
2023-02-16T06:49:42.263Z,-3.16
2023-02-16T06:52:10.298Z,-3.16
2023-02-16T06:54:38.161Z,-3.15
2023-02-16T06:57:06.184Z,-3.13
2023-02-16T06:59:34.170Z,-3.11
2023-02-16T07:02:02.174Z,-3.11
2023-02-16T07:04:30.567Z,-3.11
2023-02-16T07:06:58.629Z,-3.14
2023-02-16T07:09:26.750Z,-3.17
2023-02-16T07:11:54.679Z,-3.16
2023-02-16T07:14:23.414Z,-3.12
2023-02-16T07:16:51.350Z,-3.09
2023-02-16T07:19:19.507Z,-3.11
2023-02-16T07:21:47.596Z,-3.10
2023-02-16T07:24:15.592Z,-3.05
2023-02-16T07:26:43.752Z,-3.00
2023-02-16T07:29:11.939Z,-2.95
2023-02-16T07:31:40.093Z,-2.91
2023-02-16T07:34:09.000Z,-2.86
2023-02-16T07:36:36.977Z,-2.79
2023-02-16T07:39:05.067Z,-2.72
2023-02-16T07:41:33.051Z,-2.68
2023-02-16T07:44:00.946Z,-2.68
2023-02-16T07:46:30.517Z,-2.68
2023-02-16T07:49:00.226Z,-2.68
2023-02-16T07:51:33.469Z,-2.66
2023-02-16T07:54:01.393Z,-2.65
2023-02-16T07:56:31.930Z,-2.62
2023-02-16T07:59:02.231Z,-2.60
2023-02-16T08:01:31.136Z,-2.56
2023-02-16T08:03:59.144Z,-2.53
2023-02-16T08:06:27.135Z,-2.54
2023-02-16T08:08:55.163Z,-2.55
2023-02-16T08:11:25.378Z,-2.49
2023-02-16T08:13:53.913Z,-2.43
2023-02-16T08:16:25.038Z,-2.40
2023-02-16T08:18:55.365Z,-2.41
2023-02-16T08:21:28.143Z,-2.39
2023-02-16T08:24:05.750Z,-2.33
2023-02-16T08:26:37.571Z,-2.29
2023-02-16T08:29:07.261Z,-2.28
2023-02-16T08:31:39.381Z,-2.26
2023-02-16T08:34:08.067Z,-2.27
2023-02-16T08:36:38.670Z,-2.28
2023-02-16T08:39:09.342Z,-2.31
2023-02-16T08:41:37.966Z,-2.32
2023-02-16T08:44:07.123Z,-2.27
2023-02-16T08:46:39.241Z,-2.19
2023-02-16T08:49:08.711Z,-2.11
2023-02-16T08:51:40.989Z,-2.07
2023-02-16T08:54:09.382Z,-2.05
2023-02-16T08:56:38.081Z,-2.02
2023-02-16T08:59:06.097Z,-1.95
2023-02-16T09:01:34.128Z,-1.93
2023-02-16T09:04:02.043Z,-1.89
2023-02-16T09:06:30.069Z,-1.83
2023-02-16T09:08:57.982Z,-1.76
2023-02-16T09:11:27.078Z,-1.73
2023-02-16T09:13:55.428Z,-1.72
2023-02-16T09:16:24.545Z,-1.80
2023-02-16T09:18:53.809Z,-1.84
2023-02-16T09:21:25.578Z,-1.81
2023-02-16T09:23:56.568Z,-1.76
2023-02-16T09:26:25.808Z,-1.69
2023-02-16T09:28:54.894Z,-1.65
2023-02-16T09:31:27.465Z,-1.63
2023-02-16T09:33:59.768Z,-1.54
2023-02-16T09:36:28.561Z,-1.45
2023-02-16T09:38:56.897Z,-1.37
2023-02-16T09:41:44.529Z,-1.31
2023-02-16T09:44:33.874Z,-1.26
2023-02-16T09:47:06.457Z,-1.24
2023-02-16T09:49:42.346Z,-1.31
2023-02-16T09:52:19.610Z,-1.38
2023-02-16T09:54:58.427Z,-1.38
2023-02-16T09:57:38.547Z,-1.36
2023-02-16T10:00:20.353Z,-1.33
2023-02-16T10:03:09.437Z,-1.31
2023-02-16T10:06:26.185Z,-1.20
2023-02-16T10:09:09.359Z,-1.08
2023-02-16T10:11:49.807Z,-0.98
2023-02-16T10:14:33.672Z,-0.93
2023-02-16T10:17:12.416Z,-0.88
2023-02-16T10:20:01.151Z,-0.86
2023-02-16T10:22:38.592Z,-0.82
2023-02-16T10:25:14.322Z,-0.77
2023-02-16T10:27:45.852Z,-0.75
2023-02-16T10:30:21.026Z,-0.72
2023-02-16T10:33:06.371Z,-0.65
2023-02-16T10:35:37.269Z,-0.58
2023-02-16T10:38:10.590Z,-0.52
2023-02-16T10:40:46.765Z,-0.48
2023-02-16T10:43:25.260Z,-0.53
2023-02-16T10:45:59.656Z,-0.54
2023-02-16T10:48:27.800Z,-0.53
2023-02-16T10:51:16.377Z,-0.49
2023-02-16T10:53:44.283Z,-0.40
2023-02-16T10:56:35.159Z,-0.35
2023-02-16T10:59:07.659Z,-0.29
2023-02-16T11:01:44.167Z,-0.20
2023-02-16T11:04:39.948Z,-0.10
2023-02-16T11:07:16.114Z,-0.06
2023-02-16T11:09:46.892Z,-0.07
2023-02-16T11:12:42.127Z,-0.12
2023-02-16T11:15:20.027Z,-0.17
2023-02-16T11:17:55.455Z,-0.13
2023-02-16T11:20:34.260Z,-0.04
2023-02-16T11:23:23.199Z,0.03
2023-02-16T11:26:22.639Z,0.07
2023-02-16T11:28:51.236Z,0.12
2023-02-16T11:31:36.865Z,0.16
2023-02-16T11:34:13.175Z,0.22
2023-02-16T11:36:42.521Z,0.26
2023-02-16T11:39:25.656Z,0.29
2023-02-16T11:41:57.466Z,0.32
2023-02-16T11:44:39.638Z,0.37
2023-02-16T11:47:22.073Z,0.40
2023-02-16T11:50:07.040Z,0.42
2023-02-16T11:52:35.041Z,0.45
2023-02-16T11:55:03.164Z,0.48
2023-02-16T11:57:34.152Z,0.50
2023-02-16T12:00:14.292Z,0.54
2023-02-16T12:02:54.682Z,0.57
2023-02-16T12:05:45.340Z,0.62
2023-02-16T12:08:16.255Z,0.69
2023-02-16T12:11:11.016Z,0.73
2023-02-16T12:13:59.012Z,0.72
2023-02-16T12:16:39.183Z,0.68
2023-02-16T12:19:16.235Z,0.64
2023-02-16T12:21:52.213Z,0.65
2023-02-16T12:24:20.064Z,0.67
2023-02-16T12:26:52.521Z,0.71
2023-02-16T12:29:59.434Z,0.81
2023-02-16T12:33:09.429Z,0.93
2023-02-16T12:35:50.723Z,0.98
2023-02-16T12:38:28.689Z,1.01
2023-02-16T12:41:06.445Z,1.00
2023-02-16T12:43:46.964Z,1.04
2023-02-16T12:46:28.330Z,1.11
2023-02-16T12:49:24.709Z,1.12
2023-02-16T12:52:02.172Z,1.16
2023-02-16T12:54:48.313Z,1.24
2023-02-16T12:57:20.835Z,1.29
2023-02-16T12:59:59.559Z,1.31
2023-02-16T13:02:42.652Z,1.34
2023-02-16T13:05:18.333Z,1.36
2023-02-16T13:07:49.207Z,1.38
2023-02-16T13:10:52.925Z,1.39
2023-02-16T13:13:26.674Z,1.34
2023-02-16T13:16:12.801Z,1.32
2023-02-16T13:18:49.205Z,1.34
2023-02-16T13:21:17.050Z,1.37
2023-02-16T13:23:47.866Z,1.43
2023-02-16T13:26:19.028Z,1.47
2023-02-16T13:29:14.759Z,1.51
2023-02-16T13:32:21.151Z,1.55
2023-02-16T13:35:21.017Z,1.61
2023-02-16T13:38:23.228Z,1.70
2023-02-16T13:40:54.278Z,1.81
2023-02-16T13:43:41.634Z,1.85
2023-02-16T13:46:27.182Z,1.89
2023-02-16T13:48:56.595Z,1.93
2023-02-16T13:51:27.981Z,1.95
2023-02-16T13:54:04.054Z,1.97
2023-02-16T13:56:36.220Z,1.97
2023-02-16T13:59:17.002Z,1.99
2023-02-16T14:01:55.018Z,2.00
2023-02-16T14:04:22.865Z,2.00
2023-02-16T14:07:15.134Z,2.00
2023-02-16T14:09:50.744Z,2.01
2023-02-16T14:12:31.329Z,2.04
2023-02-16T14:15:02.680Z,2.05
2023-02-16T14:17:34.224Z,2.07
2023-02-16T14:20:14.022Z,2.06
2023-02-16T14:22:51.134Z,2.03
2023-02-16T14:25:24.610Z,2.02
2023-02-16T14:28:05.465Z,2.01
2023-02-16T14:30:39.395Z,2.02
2023-02-16T14:33:17.209Z,2.03
2023-02-16T14:36:15.807Z,2.05
2023-02-16T14:38:48.807Z,2.04
2023-02-16T14:41:22.696Z,2.03
2023-02-16T14:43:54.113Z,1.98
2023-02-16T14:46:34.228Z,1.93
2023-02-16T14:49:51.026Z,1.89
2023-02-16T14:52:28.878Z,1.84
2023-02-16T14:55:02.412Z,1.82
2023-02-16T14:57:42.228Z,1.82
2023-02-16T15:00:19.637Z,1.83
2023-02-16T15:02:55.111Z,1.84
2023-02-16T15:05:29.006Z,1.85
2023-02-16T15:08:05.135Z,1.87
2023-02-16T15:10:33.216Z,1.88
2023-02-16T15:13:01.243Z,1.88
2023-02-16T15:15:45.884Z,1.86
2023-02-16T15:18:21.327Z,1.83
2023-02-16T15:20:53.324Z,1.79
2023-02-16T15:23:26.862Z,1.75
2023-02-16T15:26:04.886Z,1.72
2023-02-16T15:28:38.609Z,1.70
2023-02-16T15:31:18.094Z,1.66
2023-02-16T15:33:58.372Z,1.63
2023-02-16T15:36:39.321Z,1.60
2023-02-16T15:39:13.042Z,1.56
2023-02-16T15:41:45.581Z,1.50
2023-02-16T15:44:35.565Z,1.46
2023-02-16T15:47:14.522Z,1.38
2023-02-16T15:49:42.579Z,1.30
2023-02-16T15:52:18.100Z,1.24
2023-02-16T15:54:48.750Z,1.18
2023-02-16T15:57:30.558Z,1.14
2023-02-16T16:00:03.123Z,1.09
2023-02-16T16:02:41.206Z,1.05
2023-02-16T16:05:21.950Z,1.00
2023-02-16T16:07:50.388Z,0.97
2023-02-16T16:10:20.694Z,0.92
2023-02-16T16:12:54.737Z,0.87
2023-02-16T16:15:27.045Z,0.83
2023-02-16T16:17:55.994Z,0.77
2023-02-16T16:20:37.277Z,0.70
2023-02-16T16:23:24.332Z,0.65
2023-02-16T16:25:53.233Z,0.60
2023-02-16T16:28:29.851Z,0.53
2023-02-16T16:31:16.330Z,0.49
2023-02-16T16:34:07.120Z,0.43
2023-02-16T16:36:47.653Z,0.38
2023-02-16T16:39:18.488Z,0.37
2023-02-16T16:42:07.279Z,0.36
2023-02-16T16:44:41.370Z,0.34
2023-02-16T16:47:13.964Z,0.33
2023-02-16T16:49:59.005Z,0.31
2023-02-16T16:52:32.899Z,0.30
2023-02-16T16:55:00.722Z,0.27
2023-02-16T16:57:30.272Z,0.25
2023-02-16T16:59:58.837Z,0.25
2023-02-16T17:02:26.704Z,0.26
2023-02-16T17:04:54.595Z,0.27
2023-02-16T17:07:22.537Z,0.29
2023-02-16T17:09:50.401Z,0.29
2023-02-16T17:12:19.606Z,0.29
2023-02-16T17:14:47.422Z,0.27
2023-02-16T17:17:15.264Z,0.24
2023-02-16T17:19:43.201Z,0.22
2023-02-16T17:22:19.015Z,0.20
2023-02-16T17:24:47.604Z,0.21
2023-02-16T17:27:15.659Z,0.22
2023-02-16T17:29:44.777Z,0.22
2023-02-16T17:32:12.852Z,0.19
2023-02-16T17:34:40.827Z,0.15
2023-02-16T17:37:10.452Z,0.11
2023-02-16T17:39:38.453Z,0.08
2023-02-16T17:42:11.411Z,0.04
2023-02-16T17:44:39.304Z,0.02
2023-02-16T17:47:15.142Z,0.02
2023-02-16T17:49:43.419Z,-0.02
2023-02-16T17:52:12.532Z,-0.05
2023-02-16T17:54:40.430Z,-0.08
2023-02-16T17:57:10.437Z,-0.09
2023-02-16T17:59:41.334Z,-0.10
2023-02-16T18:02:11.425Z,-0.12
2023-02-16T18:04:42.286Z,-0.11
2023-02-16T18:07:13.717Z,-0.10
2023-02-16T18:09:41.956Z,-0.12
2023-02-16T18:12:09.870Z,-0.14
2023-02-16T18:14:37.892Z,-0.19
2023-02-16T18:17:06.904Z,-0.23
2023-02-16T18:19:34.968Z,-0.25
2023-02-16T18:22:03.778Z,-0.25
2023-02-16T18:24:32.560Z,-0.23
2023-02-16T18:27:00.531Z,-0.22
2023-02-16T18:29:28.469Z,-0.21
2023-02-16T18:31:56.765Z,-0.22
2023-02-16T18:34:26.215Z,-0.24
2023-02-16T18:36:54.338Z,-0.26
2023-02-16T18:39:22.271Z,-0.27
2023-02-16T18:41:50.132Z,-0.30
2023-02-16T18:44:17.972Z,-0.32
2023-02-16T18:46:45.817Z,-0.35
2023-02-16T18:49:14.243Z,-0.37
2023-02-16T18:51:42.111Z,-0.40
2023-02-16T18:54:10.020Z,-0.41
2023-02-16T18:56:39.204Z,-0.43
2023-02-16T18:59:07.291Z,-0.45
2023-02-16T19:01:35.438Z,-0.45
2023-02-16T19:04:04.098Z,-0.44
2023-02-16T19:06:32.465Z,-0.45
2023-02-16T19:09:01.541Z,-0.47
2023-02-16T19:11:30.963Z,-0.50
2023-02-16T19:13:58.848Z,-0.52
2023-02-16T19:16:27.020Z,-0.55
2023-02-16T19:18:54.862Z,-0.56
2023-02-16T19:21:23.056Z,-0.58
2023-02-16T19:23:51.039Z,-0.58
2023-02-16T19:26:19.287Z,-0.58
2023-02-16T19:28:47.700Z,-0.59
2023-02-16T19:31:25.253Z,-0.60
2023-02-16T19:33:53.229Z,-0.62
2023-02-16T19:36:22.392Z,-0.64
2023-02-16T19:38:50.336Z,-0.66
2023-02-16T19:41:27.455Z,-0.70
2023-02-16T19:43:55.533Z,-0.72
2023-02-16T19:46:24.486Z,-0.74
2023-02-16T19:48:55.442Z,-0.74
2023-02-16T19:51:25.962Z,-0.73
2023-02-16T19:53:54.100Z,-0.73
2023-02-16T19:56:24.508Z,-0.74
2023-02-16T19:58:53.000Z,-0.75
2023-02-16T20:01:24.218Z,-0.76
2023-02-16T20:03:53.749Z,-0.80
2023-02-16T20:06:34.661Z,-0.80
2023-02-16T20:09:04.462Z,-0.81
2023-02-16T20:11:32.988Z,-0.82
2023-02-16T20:14:01.629Z,-0.83
2023-02-16T20:16:29.701Z,-0.83
2023-02-16T20:18:58.767Z,-0.86
2023-02-16T20:21:28.745Z,-0.87
2023-02-16T20:23:59.226Z,-0.89
2023-02-16T20:26:34.443Z,-0.93
2023-02-16T20:29:04.739Z,-0.96
2023-02-16T20:31:39.227Z,-0.97
2023-02-16T20:34:09.378Z,-1.00
2023-02-16T20:36:37.810Z,-1.00
2023-02-16T20:39:07.276Z,-1.03
2023-02-16T20:41:35.895Z,-1.08
2023-02-16T20:44:05.045Z,-1.14
2023-02-16T20:46:33.668Z,-1.19
2023-02-16T20:49:01.896Z,-1.26
2023-02-16T20:51:30.431Z,-1.31
2023-02-16T20:54:00.433Z,-1.33
2023-02-16T20:56:29.777Z,-1.33
2023-02-16T20:58:58.754Z,-1.34
2023-02-16T21:01:37.456Z,-1.36
2023-02-16T21:04:07.714Z,-1.39
2023-02-16T21:06:37.174Z,-1.42
2023-02-16T21:09:07.335Z,-1.43
2023-02-16T21:11:37.573Z,-1.42
2023-02-16T21:14:06.769Z,-1.41
2023-02-16T21:16:35.162Z,-1.39
2023-02-16T21:19:09.248Z,-1.37
2023-02-16T21:21:42.344Z,-1.38
2023-02-16T21:24:10.262Z,-1.40
2023-02-16T21:26:38.205Z,-1.42
2023-02-16T21:29:06.360Z,-1.44
2023-02-16T21:31:34.384Z,-1.47
2023-02-16T21:34:02.277Z,-1.50
2023-02-16T21:36:30.632Z,-1.52
2023-02-16T21:39:02.891Z,-1.52
2023-02-16T21:41:31.322Z,-1.53
2023-02-16T21:44:09.596Z,-1.54
2023-02-16T21:46:40.471Z,-1.53
2023-02-16T21:49:14.351Z,-1.53
2023-02-16T21:51:43.387Z,-1.53
2023-02-16T21:54:14.805Z,-1.56
2023-02-16T21:56:44.689Z,-1.59
2023-02-16T21:59:14.922Z,-1.63
2023-02-16T22:01:48.343Z,-1.67
2023-02-16T22:04:18.911Z,-1.69
2023-02-16T22:06:48.853Z,-1.70
2023-02-16T22:09:21.429Z,-1.74
2023-02-16T22:11:49.955Z,-1.77
2023-02-16T22:14:18.227Z,-1.80
2023-02-16T22:16:47.782Z,-1.81
2023-02-16T22:19:18.007Z,-1.82
2023-02-16T22:21:47.351Z,-1.84
2023-02-16T22:24:17.177Z,-1.85
2023-02-16T22:26:47.733Z,-1.85
2023-02-16T22:29:15.942Z,-1.84
2023-02-16T22:31:48.462Z,-1.83
2023-02-16T22:34:19.684Z,-1.83
2023-02-16T22:36:48.006Z,-1.83
2023-02-16T22:39:17.396Z,-1.85
2023-02-16T22:41:45.400Z,-1.86
2023-02-16T22:44:15.113Z,-1.88
2023-02-16T22:46:43.821Z,-1.91
2023-02-16T22:49:12.006Z,-1.97
2023-02-16T22:51:40.011Z,-1.99
2023-02-16T22:54:08.096Z,-1.98
2023-02-16T22:56:36.341Z,-1.94
2023-02-16T22:59:04.747Z,-1.92
2023-02-16T23:01:33.435Z,-1.91
2023-02-16T23:04:01.870Z,-1.91
2023-02-16T23:06:35.530Z,-1.89
2023-02-16T23:09:06.796Z,-1.89
2023-02-16T23:11:35.877Z,-1.91
2023-02-16T23:14:04.867Z,-1.90
2023-02-16T23:16:32.832Z,-1.90
2023-02-16T23:19:00.982Z,-1.91
2023-02-16T23:21:31.482Z,-1.92
2023-02-16T23:24:00.176Z,-1.95
2023-02-16T23:26:30.657Z,-1.99
2023-02-16T23:29:02.211Z,-2.01
2023-02-16T23:31:38.819Z,-2.00
2023-02-16T23:34:07.832Z,-1.98
2023-02-16T23:36:37.520Z,-1.96
2023-02-16T23:39:11.582Z,-1.92
2023-02-16T23:41:39.687Z,-1.88
2023-02-16T23:44:09.282Z,-1.82
2023-02-16T23:46:37.330Z,-1.77
2023-02-16T23:49:05.337Z,-1.74
2023-02-16T23:51:33.449Z,-1.71
2023-02-16T23:54:01.362Z,-1.70
2023-02-16T23:56:29.531Z,-1.68
2023-02-16T23:58:59.914Z,-1.68
